createdAt,value
2019-05-23T00:00:44.996Z,4.95
2019-05-23T00:03:37.101Z,5.25
2019-05-23T00:06:25.941Z,4.80
2019-05-23T00:09:14.227Z,4.75
2019-05-23T00:11:58.195Z,5.08
2019-05-23T00:14:39.965Z,5.70
2019-05-23T00:17:14.288Z,5.30
2019-05-23T00:19:44.363Z,5.42
2019-05-23T00:22:14.887Z,5.60
2019-05-23T00:24:45.954Z,6.20
2019-05-23T00:27:17.301Z,6.00
2019-05-23T00:29:49.016Z,6.28
2019-05-23T00:32:29.942Z,6.70
2019-05-23T00:34:59.943Z,7.05
2019-05-23T00:37:31.215Z,7.78
2019-05-23T00:40:01.068Z,7.50
2019-05-23T00:42:31.605Z,7.50
2019-05-23T00:45:02.397Z,8.10
2019-05-23T00:47:32.994Z,8.85
2019-05-23T00:50:03.613Z,8.88
2019-05-23T00:52:33.477Z,8.00
2019-05-23T00:55:04.946Z,8.70
2019-05-23T00:57:34.453Z,9.03
2019-05-23T01:00:04.697Z,9.20
2019-05-23T01:02:35.270Z,9.48
2019-05-23T01:05:06.657Z,9.03
2019-05-23T01:07:37.025Z,8.85
2019-05-23T01:10:07.243Z,8.40
2019-05-23T01:12:37.460Z,8.55
2019-05-23T01:15:08.405Z,8.05
2019-05-23T01:17:39.598Z,8.10
2019-05-23T01:20:12.151Z,7.90
2019-05-23T01:22:41.758Z,7.70
2019-05-23T01:25:12.576Z,7.75
2019-05-23T01:27:43.172Z,7.12
2019-05-23T01:30:16.419Z,7.75
2019-05-23T01:32:47.817Z,8.00
2019-05-23T01:35:22.251Z,8.00
2019-05-23T01:37:52.589Z,7.53
2019-05-23T01:40:22.374Z,7.90
2019-05-23T01:42:52.261Z,8.10
2019-05-23T01:45:22.818Z,7.28
2019-05-23T01:47:53.269Z,7.95
2019-05-23T01:50:25.989Z,7.37
2019-05-23T01:52:55.642Z,7.28
2019-05-23T01:55:25.165Z,7.47
2019-05-23T01:57:54.651Z,6.92
2019-05-23T02:00:26.755Z,7.72
2019-05-23T02:02:56.513Z,7.72
2019-05-23T02:05:26.098Z,7.60
2019-05-23T02:07:56.641Z,7.00
2019-05-23T02:10:26.122Z,7.30
2019-05-23T02:12:55.705Z,6.62
2019-05-23T02:15:25.969Z,6.40
2019-05-23T02:17:56.990Z,6.05
2019-05-23T02:20:27.307Z,5.22
2019-05-23T02:22:58.677Z,4.35
2019-05-23T02:25:29.090Z,5.12
2019-05-23T02:27:59.466Z,4.80
2019-05-23T02:30:36.241Z,5.00
2019-05-23T02:33:00.232Z,4.78
2019-05-23T02:35:29.710Z,4.55
2019-05-23T02:38:21.790Z,4.15
2019-05-23T02:41:00.233Z,3.60
2019-05-23T02:43:32.222Z,3.58
2019-05-23T02:46:03.941Z,3.80
2019-05-23T02:48:39.237Z,4.60
2019-05-23T02:51:13.232Z,4.78
2019-05-23T02:53:44.187Z,4.70
2019-05-23T02:56:14.301Z,4.90
2019-05-23T02:59:03.019Z,5.12
2019-05-23T03:02:08.150Z,4.60
2019-05-23T03:04:38.501Z,5.00
2019-05-23T03:07:09.639Z,4.70
2019-05-23T03:09:39.915Z,4.47
2019-05-23T03:12:11.253Z,4.50
2019-05-23T03:14:42.412Z,4.25
2019-05-23T03:17:16.428Z,4.20
2019-05-23T03:19:51.703Z,4.00
2019-05-23T03:22:30.941Z,3.70
2019-05-23T03:25:03.114Z,3.90
2019-05-23T03:27:36.759Z,3.83
2019-05-23T03:30:08.970Z,3.40
2019-05-23T03:32:49.821Z,3.65
2019-05-23T03:35:47.656Z,3.75
2019-05-23T03:38:17.431Z,3.00
2019-05-23T03:40:47.305Z,3.00
2019-05-23T03:43:17.454Z,3.40
2019-05-23T03:45:53.313Z,3.80
2019-05-23T03:48:23.992Z,4.40
2019-05-23T03:50:55.320Z,4.47
2019-05-23T03:53:27.633Z,4.55
2019-05-23T03:55:57.559Z,4.85
2019-05-23T03:58:27.227Z,5.17
2019-05-23T04:00:57.271Z,5.20
2019-05-23T04:03:29.531Z,6.35
2019-05-23T04:05:59.564Z,6.67
2019-05-23T04:08:29.687Z,7.83
2019-05-23T04:10:59.234Z,8.10
2019-05-23T04:13:29.087Z,8.10
2019-05-23T04:15:58.699Z,7.83
2019-05-23T04:18:28.279Z,7.70
2019-05-23T04:20:57.798Z,7.73
2019-05-23T04:23:27.286Z,7.57
2019-05-23T04:25:56.797Z,8.27
2019-05-23T04:28:26.988Z,8.17
2019-05-23T04:30:56.827Z,8.48
2019-05-23T04:33:26.676Z,9.05
2019-05-23T04:35:56.264Z,9.63
2019-05-23T04:38:26.147Z,10.60
2019-05-23T04:40:55.988Z,10.70
2019-05-23T04:43:25.865Z,11.20
2019-05-23T04:45:55.848Z,11.50
2019-05-23T04:48:25.337Z,12.03
2019-05-23T04:50:59.755Z,13.03
2019-05-23T04:53:27.059Z,12.82
2019-05-23T04:55:56.626Z,13.13
2019-05-23T04:58:26.404Z,13.30
2019-05-23T05:00:55.980Z,13.43
2019-05-23T05:03:25.769Z,13.30
2019-05-23T05:05:55.292Z,13.17
2019-05-23T05:08:25.582Z,13.83
2019-05-23T05:10:55.085Z,14.25
2019-05-23T05:13:24.834Z,16.60
2019-05-23T05:15:55.690Z,15.90
2019-05-23T05:18:25.393Z,16.87
2019-05-23T05:20:54.894Z,16.43
2019-05-23T05:23:24.477Z,17.30
2019-05-23T05:25:54.049Z,16.47
2019-05-23T05:28:23.592Z,16.83
2019-05-23T05:30:53.472Z,16.60
2019-05-23T05:33:23.003Z,16.65
2019-05-23T05:35:53.385Z,16.07
2019-05-23T05:38:23.766Z,16.60
2019-05-23T05:40:53.325Z,16.23
2019-05-23T05:43:23.589Z,17.07
2019-05-23T05:45:53.170Z,17.20
2019-05-23T05:48:22.705Z,16.05
2019-05-23T05:50:52.944Z,16.37
2019-05-23T05:53:22.520Z,15.45
2019-05-23T05:55:52.117Z,15.90
2019-05-23T05:58:21.557Z,15.90
2019-05-23T06:01:00.939Z,16.00
2019-05-23T06:03:30.446Z,16.55
2019-05-23T06:06:16.498Z,15.83
2019-05-23T06:08:47.321Z,15.73
2019-05-23T06:11:16.831Z,15.25
2019-05-23T06:13:46.659Z,15.80
2019-05-23T06:16:16.260Z,15.57
2019-05-23T06:18:46.631Z,14.60
2019-05-23T06:21:18.981Z,13.38
2019-05-23T06:23:48.515Z,14.10
2019-05-23T06:26:18.019Z,13.80
2019-05-23T06:28:47.617Z,14.00
2019-05-23T06:31:17.730Z,12.73
2019-05-23T06:33:47.449Z,13.30
2019-05-23T06:36:18.366Z,13.10
2019-05-23T06:38:48.167Z,12.73
2019-05-23T06:41:18.425Z,12.60
2019-05-23T06:43:47.954Z,11.97
2019-05-23T06:46:17.510Z,11.33
2019-05-23T06:48:47.378Z,11.88
2019-05-23T06:51:18.327Z,11.57
2019-05-23T06:53:47.945Z,10.63
2019-05-23T06:56:17.593Z,10.90
2019-05-23T06:58:47.115Z,10.20
2019-05-23T07:01:16.705Z,9.50
2019-05-23T07:03:46.219Z,9.00
2019-05-23T07:06:17.990Z,8.95
2019-05-23T07:08:47.509Z,8.40
2019-05-23T07:11:17.763Z,7.92
2019-05-23T07:13:47.554Z,6.30
2019-05-23T07:16:17.137Z,6.27
2019-05-23T07:18:46.643Z,6.30
2019-05-23T07:21:16.530Z,5.80
2019-05-23T07:23:46.160Z,5.57
2019-05-23T07:26:15.789Z,5.10
2019-05-23T07:28:45.595Z,4.73
2019-05-23T07:31:16.758Z,4.85
2019-05-23T07:34:00.905Z,4.80
2019-05-23T07:36:17.681Z,4.20
2019-05-23T07:38:47.252Z,3.27
2019-05-23T07:41:17.449Z,3.50
2019-05-23T07:43:47.262Z,2.10
2019-05-23T07:46:16.852Z,2.60
2019-05-23T07:48:46.465Z,3.20
2019-05-23T07:51:16.031Z,2.10
2019-05-23T07:54:07.936Z,1.90
2019-05-23T07:56:37.732Z,1.60
2019-05-23T07:59:07.850Z,1.80
2019-05-23T08:01:39.800Z,1.70
2019-05-23T08:04:21.438Z,2.20
2019-05-23T08:06:41.174Z,2.30
2019-05-23T08:09:11.342Z,2.70
2019-05-23T08:11:44.420Z,2.47
2019-05-23T08:14:13.932Z,2.90
2019-05-23T08:16:44.561Z,2.20
2019-05-23T08:19:19.176Z,1.80
2019-05-23T08:21:46.184Z,2.57
2019-05-23T08:24:15.688Z,2.10
2019-05-23T08:26:46.441Z,2.80
2019-05-23T08:29:26.180Z,2.10
2019-05-23T08:31:47.132Z,2.20
2019-05-23T08:34:19.422Z,2.37
2019-05-23T08:36:51.767Z,1.80
2019-05-23T08:39:22.892Z,2.17
2019-05-23T08:41:52.536Z,2.20
2019-05-23T08:44:23.826Z,2.33
2019-05-23T08:46:57.132Z,1.90
2019-05-23T08:49:26.787Z,2.00
2019-05-23T08:51:56.635Z,1.90
2019-05-23T08:54:26.153Z,1.77
2019-05-23T08:56:56.357Z,1.50
2019-05-23T08:59:25.943Z,1.37
2019-05-23T09:01:55.777Z,1.30
2019-05-23T09:04:25.265Z,1.40
2019-05-23T09:06:55.364Z,1.40
2019-05-23T09:09:29.961Z,1.50
2019-05-23T09:11:58.796Z,1.25
2019-05-23T09:14:29.055Z,1.40
2019-05-23T09:16:58.889Z,1.40
2019-05-23T09:19:28.421Z,1.40
2019-05-23T09:21:58.387Z,1.50
2019-05-23T09:24:27.989Z,1.10
2019-05-23T09:26:57.929Z,1.17
2019-05-23T09:29:27.617Z,1.10
2019-05-23T09:31:57.151Z,1.27
2019-05-23T09:34:26.726Z,1.20
2019-05-23T09:37:00.291Z,1.32
2019-05-23T09:39:30.331Z,1.20
2019-05-23T09:41:59.911Z,1.00
2019-05-23T09:44:29.453Z,1.10
2019-05-23T09:46:59.063Z,1.00
2019-05-23T09:49:28.884Z,1.02
2019-05-23T09:52:01.391Z,1.00
2019-05-23T09:54:31.033Z,1.10
2019-05-23T09:57:00.699Z,1.50
2019-05-23T09:59:30.288Z,1.10
2019-05-23T10:02:01.321Z,1.13
2019-05-23T10:04:30.866Z,1.17
2019-05-23T10:07:00.396Z,1.20
2019-05-23T10:09:29.887Z,1.30
2019-05-23T10:11:59.493Z,1.20
2019-05-23T10:14:31.923Z,1.55
2019-05-23T10:17:01.453Z,1.80
2019-05-23T10:19:30.947Z,1.20
2019-05-23T10:22:01.553Z,1.27
2019-05-23T10:24:31.136Z,1.70
2019-05-23T10:27:00.641Z,1.80
2019-05-23T10:29:30.155Z,1.87
2019-05-23T10:31:59.666Z,1.80
2019-05-23T10:34:29.165Z,1.80
2019-05-23T10:36:58.683Z,2.73
2019-05-23T10:39:28.200Z,3.40
2019-05-23T10:41:58.500Z,3.20
2019-05-23T10:44:27.976Z,3.53
2019-05-23T10:46:57.492Z,4.10
2019-05-23T10:49:27.058Z,4.47
2019-05-23T10:51:56.656Z,4.50
2019-05-23T10:54:26.228Z,4.47
2019-05-23T10:56:55.750Z,4.40
2019-05-23T10:59:26.212Z,5.50
2019-05-23T11:01:56.791Z,4.60
2019-05-23T11:04:27.442Z,4.00
2019-05-23T11:06:57.184Z,4.40
2019-05-23T11:09:37.151Z,4.97
2019-05-23T11:11:58.074Z,3.87
2019-05-23T11:14:27.648Z,4.60
2019-05-23T11:16:57.163Z,3.90
2019-05-23T11:19:26.687Z,4.50
2019-05-23T11:21:56.186Z,3.60
2019-05-23T11:24:25.717Z,3.92
2019-05-23T11:26:55.322Z,4.33
2019-05-23T11:29:27.230Z,3.87
2019-05-23T11:31:56.605Z,3.55
2019-05-23T11:34:26.984Z,4.00
2019-05-23T11:36:56.518Z,3.37
2019-05-23T11:39:27.765Z,3.70
2019-05-23T11:41:57.389Z,3.40
2019-05-23T11:44:26.899Z,3.07
2019-05-23T11:46:56.805Z,3.90
2019-05-23T11:49:26.334Z,3.60
2019-05-23T11:51:56.009Z,3.70
2019-05-23T11:54:25.881Z,3.40
2019-05-23T11:56:55.829Z,4.03
2019-05-23T11:59:25.346Z,4.20
2019-05-23T12:02:19.963Z,4.20
2019-05-23T12:04:50.957Z,3.77
2019-05-23T12:07:26.778Z,4.37
2019-05-23T12:09:56.280Z,5.20
2019-05-23T12:12:26.055Z,4.30
2019-05-23T12:14:56.604Z,5.00
2019-05-23T12:17:28.955Z,4.87
2019-05-23T12:19:58.503Z,4.90
2019-05-23T12:22:28.274Z,6.35
2019-05-23T12:24:58.056Z,5.25
2019-05-23T12:27:27.803Z,5.30
2019-05-23T12:29:57.405Z,5.27
2019-05-23T12:32:26.980Z,5.10
2019-05-23T12:35:09.468Z,5.40
2019-05-23T12:37:27.842Z,5.20
2019-05-23T12:39:57.900Z,5.07
2019-05-23T12:42:27.805Z,4.80
2019-05-23T12:44:57.414Z,4.50
2019-05-23T12:47:40.881Z,4.70
2019-05-23T12:50:14.138Z,4.80
2019-05-23T12:52:43.623Z,5.17
2019-05-23T12:55:13.290Z,4.50
2019-05-23T12:57:42.808Z,4.53
2019-05-23T13:00:26.265Z,5.60
2019-05-23T13:02:58.686Z,5.90
2019-05-23T13:05:28.271Z,5.53
2019-05-23T13:07:57.775Z,4.97
2019-05-23T13:10:27.462Z,5.90
2019-05-23T13:12:57.108Z,6.50
2019-05-23T13:15:27.022Z,6.10
2019-05-23T13:17:56.552Z,6.58
2019-05-23T13:20:26.278Z,5.83
2019-05-23T13:22:55.786Z,6.04
2019-05-23T13:25:27.045Z,6.90
2019-05-23T13:27:58.794Z,6.85
2019-05-23T13:30:28.576Z,6.45
2019-05-23T13:32:58.108Z,5.30
2019-05-23T13:35:28.768Z,6.50
2019-05-23T13:37:58.322Z,6.40
2019-05-23T13:40:27.940Z,6.40
2019-05-23T13:42:58.106Z,7.28
2019-05-23T13:45:27.924Z,7.17
2019-05-23T13:47:57.430Z,7.00
2019-05-23T13:50:28.253Z,7.25
2019-05-23T13:52:58.591Z,7.00
2019-05-23T13:55:28.282Z,6.60
2019-05-23T13:57:57.814Z,7.70
2019-05-23T14:00:28.693Z,7.10
2019-05-23T14:02:58.326Z,6.60
2019-05-23T14:05:27.952Z,6.78
2019-05-23T14:08:11.320Z,6.80
2019-05-23T14:10:29.192Z,6.20
2019-05-23T14:12:58.696Z,6.40
2019-05-23T14:15:33.704Z,6.40
2019-05-23T14:18:03.640Z,6.50
2019-05-23T14:20:33.285Z,7.00
2019-05-23T14:23:09.104Z,6.60
2019-05-23T14:25:38.798Z,6.58
2019-05-23T14:28:09.210Z,6.50
2019-05-23T14:30:52.206Z,6.60
2019-05-23T14:33:29.289Z,7.40
2019-05-23T14:36:00.596Z,6.53
2019-05-23T14:38:32.441Z,6.33
2019-05-23T14:41:02.207Z,7.40
2019-05-23T14:43:31.775Z,7.30
2019-05-23T14:46:04.050Z,7.62
2019-05-23T14:48:51.796Z,7.83
2019-05-23T14:51:30.807Z,7.80
2019-05-23T14:54:10.350Z,7.40
2019-05-23T14:56:39.899Z,9.00
2019-05-23T14:59:09.539Z,9.27
2019-05-23T15:01:39.090Z,8.40
2019-05-23T15:04:08.848Z,8.63
2019-05-23T15:06:38.560Z,9.27
2019-05-23T15:09:08.949Z,8.30
2019-05-23T15:11:38.993Z,9.28
2019-05-23T15:14:08.582Z,9.70
2019-05-23T15:16:38.141Z,9.00
2019-05-23T15:19:07.755Z,9.00
2019-05-23T15:21:37.294Z,8.20
2019-05-23T15:24:07.010Z,8.68
2019-05-23T15:26:36.657Z,8.93
2019-05-23T15:29:06.849Z,9.48
2019-05-23T15:31:36.366Z,8.80
2019-05-23T15:34:05.951Z,7.67
2019-05-23T15:36:35.456Z,7.47
2019-05-23T15:39:10.010Z,7.20
2019-05-23T15:41:39.060Z,6.90
2019-05-23T15:44:24.041Z,8.08
2019-05-23T15:46:39.806Z,7.50
2019-05-23T15:49:10.657Z,8.60
2019-05-23T15:51:46.118Z,7.70
2019-05-23T15:54:34.681Z,7.50
2019-05-23T15:57:12.764Z,7.30
2019-05-23T15:59:49.047Z,7.60
2019-05-23T16:02:29.100Z,7.65
2019-05-23T16:05:00.158Z,8.25
2019-05-23T16:07:30.313Z,8.30
2019-05-23T16:09:59.994Z,7.72
2019-05-23T16:12:29.534Z,7.45
2019-05-23T16:14:59.104Z,6.20
2019-05-23T16:17:29.029Z,5.70
2019-05-23T16:19:59.040Z,5.93
2019-05-23T16:22:28.957Z,5.70
2019-05-23T16:24:58.511Z,5.40
2019-05-23T16:27:28.094Z,6.10
2019-05-23T16:29:57.599Z,6.17
2019-05-23T16:32:27.126Z,6.50
2019-05-23T16:34:56.652Z,5.20
2019-05-23T16:37:26.180Z,5.30
2019-05-23T16:39:55.702Z,5.50
2019-05-23T16:42:25.511Z,6.83
2019-05-23T16:44:55.010Z,7.28
2019-05-23T16:47:25.341Z,9.83
2019-05-23T16:49:55.360Z,6.10
2019-05-23T16:52:24.940Z,5.12
2019-05-23T16:54:56.100Z,4.70
2019-05-23T16:57:36.053Z,4.37
2019-05-23T17:00:24.712Z,4.87
2019-05-23T17:03:17.279Z,4.80
2019-05-23T17:06:11.802Z,5.00
2019-05-23T17:08:58.181Z,4.53
2019-05-23T17:11:37.303Z,4.70
2019-05-23T17:14:25.855Z,5.17
2019-05-23T17:17:13.165Z,4.50
2019-05-23T17:19:53.673Z,4.30
2019-05-23T17:22:57.678Z,4.80
2019-05-23T17:25:46.124Z,5.43
2019-05-23T17:28:21.942Z,5.53
2019-05-23T17:30:54.375Z,5.30
2019-05-23T17:33:24.237Z,5.12
2019-05-23T17:35:53.821Z,4.95
2019-05-23T17:38:23.825Z,5.50
2019-05-23T17:40:53.344Z,5.75
2019-05-23T17:43:23.253Z,5.60
2019-05-23T17:45:53.861Z,5.73
2019-05-23T17:48:23.495Z,5.22
2019-05-23T17:50:52.956Z,6.00
2019-05-23T17:53:22.474Z,5.85
2019-05-23T17:55:52.256Z,6.20
2019-05-23T17:58:22.038Z,6.07
2019-05-23T18:00:51.809Z,5.97
2019-05-23T18:03:21.351Z,6.70
2019-05-23T18:05:50.947Z,6.50
2019-05-23T18:08:20.503Z,5.87
2019-05-23T18:10:50.024Z,6.80
2019-05-23T18:13:20.697Z,6.70
2019-05-23T18:15:50.360Z,6.40
2019-05-23T18:18:20.641Z,6.20
2019-05-23T18:20:50.333Z,6.80
2019-05-23T18:23:20.223Z,5.93
2019-05-23T18:25:50.028Z,6.80
2019-05-23T18:28:20.052Z,6.50
2019-05-23T18:30:56.608Z,6.40
2019-05-23T18:33:28.530Z,6.40
2019-05-23T18:35:58.898Z,6.12
2019-05-23T18:38:28.692Z,6.10
2019-05-23T18:41:04.290Z,6.30
2019-05-23T18:43:30.010Z,6.10
2019-05-23T18:46:03.546Z,6.57
2019-05-23T18:48:33.410Z,7.33
2019-05-23T18:51:02.948Z,7.83
2019-05-23T18:53:32.458Z,7.90
2019-05-23T18:56:02.043Z,7.77
2019-05-23T18:58:31.678Z,9.25
2019-05-23T19:01:13.915Z,9.05
2019-05-23T19:03:43.749Z,9.13
2019-05-23T19:06:13.267Z,8.70
2019-05-23T19:08:43.254Z,8.83
2019-05-23T19:11:20.784Z,9.37
2019-05-23T19:13:44.176Z,9.83
2019-05-23T19:16:13.694Z,9.95
2019-05-23T19:18:43.254Z,10.27
2019-05-23T19:21:15.294Z,9.30
2019-05-23T19:23:44.917Z,10.35
2019-05-23T19:26:15.300Z,9.70
2019-05-23T19:28:45.623Z,9.73
2019-05-23T19:31:16.023Z,9.27
2019-05-23T19:33:46.749Z,9.60
2019-05-23T19:36:16.838Z,8.98
2019-05-23T19:38:47.336Z,9.27
2019-05-23T19:41:16.926Z,9.60
2019-05-23T19:43:48.206Z,8.93
2019-05-23T19:46:18.267Z,9.20
2019-05-23T19:48:48.537Z,8.30
2019-05-23T19:51:18.705Z,8.57
2019-05-23T19:53:48.441Z,8.50
2019-05-23T19:56:18.418Z,9.10
2019-05-23T19:58:48.028Z,9.37
2019-05-23T20:01:18.409Z,8.13
2019-05-23T20:03:48.428Z,7.80
2019-05-23T20:06:18.789Z,7.50
2019-05-23T20:08:48.963Z,7.70
2019-05-23T20:11:18.566Z,7.55
2019-05-23T20:13:48.097Z,7.60
2019-05-23T20:16:17.610Z,6.50
2019-05-23T20:18:47.294Z,7.17
2019-05-23T20:21:17.009Z,6.80
2019-05-23T20:23:46.540Z,6.92
2019-05-23T20:26:16.291Z,6.83
2019-05-23T20:28:45.811Z,6.58
2019-05-23T20:31:15.302Z,7.00
2019-05-23T20:33:44.853Z,6.90
2019-05-23T20:36:14.905Z,6.80
2019-05-23T20:38:44.815Z,6.53
2019-05-23T20:41:14.346Z,6.60
2019-05-23T20:43:43.911Z,6.85
2019-05-23T20:46:13.424Z,6.73
2019-05-23T20:48:42.961Z,6.75
2019-05-23T20:51:12.637Z,7.10
2019-05-23T20:53:42.641Z,7.00
2019-05-23T20:56:12.226Z,7.60
2019-05-23T20:58:41.774Z,7.50
2019-05-23T21:01:18.640Z,8.83
2019-05-23T21:03:48.772Z,7.62
2019-05-23T21:06:18.269Z,7.40
2019-05-23T21:08:47.789Z,8.10
2019-05-23T21:11:17.288Z,7.62
2019-05-23T21:13:46.884Z,8.00
2019-05-23T21:16:16.385Z,8.30
2019-05-23T21:18:49.196Z,8.50
2019-05-23T21:21:18.082Z,7.60
2019-05-23T21:23:47.779Z,7.57
2019-05-23T21:26:17.690Z,8.40
2019-05-23T21:28:47.274Z,8.50
2019-05-23T21:31:22.628Z,9.50
2019-05-23T21:33:52.139Z,9.15
2019-05-23T21:36:21.679Z,9.95
2019-05-23T21:38:51.265Z,8.60
2019-05-23T21:41:20.758Z,8.73
2019-05-23T21:43:51.934Z,9.50
2019-05-23T21:46:21.463Z,9.00
2019-05-23T21:48:50.992Z,9.50
2019-05-23T21:51:20.512Z,9.50
2019-05-23T21:53:50.024Z,9.85
2019-05-23T21:56:19.525Z,9.40
2019-05-23T21:58:49.042Z,9.60
2019-05-23T22:01:37.978Z,9.40
2019-05-23T22:04:38.826Z,9.80
2019-05-23T22:07:09.091Z,9.78
2019-05-23T22:09:39.074Z,9.85
2019-05-23T22:12:12.737Z,9.60
2019-05-23T22:14:42.260Z,9.63
2019-05-23T22:17:11.763Z,9.20
2019-05-23T22:19:41.571Z,8.73
2019-05-23T22:22:11.298Z,9.30
2019-05-23T22:24:40.819Z,9.50
2019-05-23T22:27:11.244Z,9.63
2019-05-23T22:29:40.748Z,9.38
2019-05-23T22:32:11.888Z,9.80
2019-05-23T22:34:49.379Z,9.30
2019-05-23T22:37:24.530Z,9.70
2019-05-23T22:39:54.101Z,11.65
2019-05-23T22:42:24.977Z,11.50
2019-05-23T22:44:54.489Z,11.50
2019-05-23T22:47:25.004Z,11.48
2019-05-23T22:49:54.610Z,11.33
2019-05-23T22:52:24.192Z,12.18
2019-05-23T22:54:53.717Z,11.65
2019-05-23T22:57:23.228Z,11.80
2019-05-23T22:59:52.767Z,12.75
2019-05-23T23:02:22.268Z,13.03
2019-05-23T23:04:51.775Z,13.57
2019-05-23T23:07:21.382Z,12.23
2019-05-23T23:09:51.067Z,12.63
2019-05-23T23:12:20.571Z,12.60
2019-05-23T23:14:50.250Z,13.20
2019-05-23T23:17:20.412Z,13.38
2019-05-23T23:19:49.910Z,13.50
2019-05-23T23:22:19.477Z,13.10
2019-05-23T23:24:48.933Z,12.98
2019-05-23T23:27:18.471Z,12.93
2019-05-23T23:29:48.000Z,12.80
2019-05-23T23:32:17.530Z,12.68
2019-05-23T23:34:47.046Z,12.80
2019-05-23T23:37:16.561Z,13.45
2019-05-23T23:39:46.122Z,12.63
2019-05-23T23:42:15.609Z,13.05
2019-05-23T23:44:44.275Z,13.95
2019-05-23T23:47:31.659Z,15.20
2019-05-23T23:50:19.258Z,15.67
2019-05-23T23:53:06.609Z,16.15
2019-05-23T23:55:53.921Z,14.07
2019-05-23T23:58:23.545Z,15.65
